sensor_id;sensor_type;location;lat;lon;timestamp;pressure;altitude;pressure_sealevel;temperature;humidity
77725;BME280;66892;53.236;6.550;2024-01-11T00:02:23;103585.00;;;-7.41;100.00
77725;BME280;66892;53.236;6.550;2024-01-11T00:04:49;103596.38;;;-7.39;100.00
77725;BME280;66892;53.236;6.550;2024-01-11T00:07:16;103604.53;;;-7.51;100.00
77725;BME280;66892;53.236;6.550;2024-01-11T00:09:43;103607.56;;;-7.62;100.00
77725;BME280;66892;53.236;6.550;2024-01-11T00:12:10;103602.63;;;-7.67;100.00
77725;BME280;66892;53.236;6.550;2024-01-11T00:14:36;103594.47;;;-7.79;100.00
77725;BME280;66892;53.236;6.550;2024-01-11T00:17:03;103590.63;;;-7.82;100.00
77725;BME280;66892;53.236;6.550;2024-01-11T00:19:29;103596.09;;;-7.79;100.00
77725;BME280;66892;53.236;6.550;2024-01-11T00:21:55;103606.38;;;-7.79;100.00
77725;BME280;66892;53.236;6.550;2024-01-11T00:24:21;103607.34;;;-7.86;100.00
77725;BME280;66892;53.236;6.550;2024-01-11T00:26:49;103605.38;;;-7.95;100.00
77725;BME280;66892;53.236;6.550;2024-01-11T00:29:17;103602.84;;;-8.03;100.00
77725;BME280;66892;53.236;6.550;2024-01-11T00:31:43;103594.28;;;-8.10;100.00
77725;BME280;66892;53.236;6.550;2024-01-11T00:34:10;103581.16;;;-8.27;100.00
77725;BME280;66892;53.236;6.550;2024-01-11T00:36:36;103601.31;;;-8.23;100.00
77725;BME280;66892;53.236;6.550;2024-01-11T00:39:02;103595.25;;;-8.24;100.00
77725;BME280;66892;53.236;6.550;2024-01-11T00:41:29;103609.34;;;-8.13;100.00
77725;BME280;66892;53.236;6.550;2024-01-11T00:43:56;103598.72;;;-8.16;100.00
77725;BME280;66892;53.236;6.550;2024-01-11T00:46:23;103593.16;;;-8.05;100.00
77725;BME280;66892;53.236;6.550;2024-01-11T00:48:50;103585.53;;;-7.89;100.00
77725;BME280;66892;53.236;6.550;2024-01-11T00:51:17;103576.53;;;-7.86;100.00
77725;BME280;66892;53.236;6.550;2024-01-11T00:53:43;103577.78;;;-7.82;100.00
77725;BME280;66892;53.236;6.550;2024-01-11T00:56:15;103572.94;;;-7.72;100.00
77725;BME280;66892;53.236;6.550;2024-01-11T00:58:41;103590.50;;;-7.61;100.00
77725;BME280;66892;53.236;6.550;2024-01-11T01:01:10;103581.09;;;-7.61;100.00
77725;BME280;66892;53.236;6.550;2024-01-11T01:03:36;103585.06;;;-7.49;100.00
77725;BME280;66892;53.236;6.550;2024-01-11T01:06:03;103575.34;;;-7.51;100.00
77725;BME280;66892;53.236;6.550;2024-01-11T01:08:29;103580.00;;;-7.56;100.00
77725;BME280;66892;53.236;6.550;2024-01-11T01:10:56;103594.44;;;-7.49;100.00
77725;BME280;66892;53.236;6.550;2024-01-11T01:13:22;103578.16;;;-7.57;100.00
77725;BME280;66892;53.236;6.550;2024-01-11T01:15:48;103584.31;;;-7.48;100.00
77725;BME280;66892;53.236;6.550;2024-01-11T01:18:16;103583.00;;;-7.44;100.00
77725;BME280;66892;53.236;6.550;2024-01-11T01:20:42;103571.69;;;-7.53;100.00
77725;BME280;66892;53.236;6.550;2024-01-11T01:23:09;103571.13;;;-7.51;100.00
77725;BME280;66892;53.236;6.550;2024-01-11T01:25:35;103569.94;;;-7.38;100.00
77725;BME280;66892;53.236;6.550;2024-01-11T01:28:02;103568.22;;;-7.31;100.00
77725;BME280;66892;53.236;6.550;2024-01-11T01:30:28;103556.34;;;-7.37;100.00
77725;BME280;66892;53.236;6.550;2024-01-11T01:32:55;103566.66;;;-7.44;100.00
77725;BME280;66892;53.236;6.550;2024-01-11T01:35:23;103569.22;;;-7.44;100.00
77725;BME280;66892;53.236;6.550;2024-01-11T01:37:50;103567.63;;;-7.51;100.00
77725;BME280;66892;53.236;6.550;2024-01-11T01:40:16;103572.09;;;-7.57;100.00
77725;BME280;66892;53.236;6.550;2024-01-11T01:42:43;103564.50;;;-7.71;100.00
77725;BME280;66892;53.236;6.550;2024-01-11T01:45:12;103570.13;;;-7.89;100.00
77725;BME280;66892;53.236;6.550;2024-01-11T01:47:41;103565.44;;;-8.01;100.00
77725;BME280;66892;53.236;6.550;2024-01-11T01:50:10;103573.88;;;-8.02;100.00
77725;BME280;66892;53.236;6.550;2024-01-11T01:52:40;103560.69;;;-8.05;100.00
77725;BME280;66892;53.236;6.550;2024-01-11T01:55:10;103552.09;;;-8.12;100.00
77725;BME280;66892;53.236;6.550;2024-01-11T01:57:39;103564.56;;;-8.08;100.00
77725;BME280;66892;53.236;6.550;2024-01-11T02:00:10;103563.63;;;-8.09;100.00
77725;BME280;66892;53.236;6.550;2024-01-11T02:02:38;103550.66;;;-8.10;100.00
77725;BME280;66892;53.236;6.550;2024-01-11T02:05:06;103561.59;;;-8.04;100.00
77725;BME280;66892;53.236;6.550;2024-01-11T02:07:33;103562.16;;;-7.99;100.00
77725;BME280;66892;53.236;6.550;2024-01-11T02:10:01;103561.22;;;-8.00;100.00
77725;BME280;66892;53.236;6.550;2024-01-11T02:12:29;103567.34;;;-8.14;100.00
77725;BME280;66892;53.236;6.550;2024-01-11T02:14:55;103559.53;;;-8.22;100.00
77725;BME280;66892;53.236;6.550;2024-01-11T02:17:22;103568.88;;;-8.23;100.00
77725;BME280;66892;53.236;6.550;2024-01-11T02:19:48;103564.19;;;-8.34;100.00
77725;BME280;66892;53.236;6.550;2024-01-11T02:22:19;103553.00;;;-8.34;100.00
77725;BME280;66892;53.236;6.550;2024-01-11T02:24:48;103575.34;;;-8.33;100.00
77725;BME280;66892;53.236;6.550;2024-01-11T02:27:15;103561.81;;;-8.32;100.00
77725;BME280;66892;53.236;6.550;2024-01-11T02:29:41;103559.75;;;-8.28;100.00
77725;BME280;66892;53.236;6.550;2024-01-11T02:32:08;103576.00;;;-8.20;100.00
77725;BME280;66892;53.236;6.550;2024-01-11T02:34:35;103573.78;;;-8.17;100.00
77725;BME280;66892;53.236;6.550;2024-01-11T02:37:02;103572.94;;;-8.02;100.00
77725;BME280;66892;53.236;6.550;2024-01-11T02:39:28;103579.72;;;-8.03;100.00
77725;BME280;66892;53.236;6.550;2024-01-11T02:41:58;103580.41;;;-8.19;100.00
77725;BME280;66892;53.236;6.550;2024-01-11T02:44:25;103579.63;;;-8.18;100.00
77725;BME280;66892;53.236;6.550;2024-01-11T02:46:51;103571.31;;;-8.31;100.00
77725;BME280;66892;53.236;6.550;2024-01-11T02:49:17;103581.22;;;-8.34;100.00
77725;BME280;66892;53.236;6.550;2024-01-11T02:51:44;103590.69;;;-8.26;100.00
77725;BME280;66892;53.236;6.550;2024-01-11T02:54:10;103582.78;;;-8.21;100.00
77725;BME280;66892;53.236;6.550;2024-01-11T02:56:37;103578.91;;;-8.17;100.00
77725;BME280;66892;53.236;6.550;2024-01-11T02:59:04;103555.69;;;-8.26;100.00
77725;BME280;66892;53.236;6.550;2024-01-11T03:01:31;103572.34;;;-8.22;100.00
77725;BME280;66892;53.236;6.550;2024-01-11T03:03:59;103577.19;;;-8.32;100.00
77725;BME280;66892;53.236;6.550;2024-01-11T03:06:25;103577.38;;;-8.38;100.00
77725;BME280;66892;53.236;6.550;2024-01-11T03:08:52;103578.22;;;-8.23;100.00
77725;BME280;66892;53.236;6.550;2024-01-11T03:11:18;103589.28;;;-8.02;100.00
77725;BME280;66892;53.236;6.550;2024-01-11T03:13:45;103589.81;;;-7.97;100.00
77725;BME280;66892;53.236;6.550;2024-01-11T03:16:13;103597.28;;;-7.91;100.00
77725;BME280;66892;53.236;6.550;2024-01-11T03:18:39;103585.69;;;-7.81;100.00
77725;BME280;66892;53.236;6.550;2024-01-11T03:21:06;103597.75;;;-7.50;100.00
77725;BME280;66892;53.236;6.550;2024-01-11T03:23:32;103586.44;;;-7.36;100.00
77725;BME280;66892;53.236;6.550;2024-01-11T03:25:58;103580.31;;;-7.30;100.00
77725;BME280;66892;53.236;6.550;2024-01-11T03:28:26;103568.81;;;-7.18;100.00
77725;BME280;66892;53.236;6.550;2024-01-11T03:30:52;103570.75;;;-7.08;100.00
77725;BME280;66892;53.236;6.550;2024-01-11T03:33:29;103572.75;;;-7.06;100.00
77725;BME280;66892;53.236;6.550;2024-01-11T03:35:55;103573.00;;;-7.11;100.00
77725;BME280;66892;53.236;6.550;2024-01-11T03:38:21;103572.66;;;-7.14;100.00
77725;BME280;66892;53.236;6.550;2024-01-11T03:40:47;103578.13;;;-7.11;100.00
77725;BME280;66892;53.236;6.550;2024-01-11T03:43:17;103572.66;;;-7.14;100.00
77725;BME280;66892;53.236;6.550;2024-01-11T03:45:44;103581.22;;;-7.07;100.00
77725;BME280;66892;53.236;6.550;2024-01-11T03:48:10;103573.66;;;-7.05;100.00
77725;BME280;66892;53.236;6.550;2024-01-11T03:50:38;103570.78;;;-6.93;100.00
77725;BME280;66892;53.236;6.550;2024-01-11T03:53:04;103568.53;;;-6.74;100.00
77725;BME280;66892;53.236;6.550;2024-01-11T03:55:31;103570.91;;;-6.68;100.00
77725;BME280;66892;53.236;6.550;2024-01-11T03:57:57;103565.09;;;-6.59;100.00
77725;BME280;66892;53.236;6.550;2024-01-11T04:00:23;103558.69;;;-6.47;100.00
77725;BME280;66892;53.236;6.550;2024-01-11T04:02:50;103551.66;;;-6.32;100.00
77725;BME280;66892;53.236;6.550;2024-01-11T04:05:16;103544.72;;;-6.33;100.00
77725;BME280;66892;53.236;6.550;2024-01-11T04:07:44;103547.59;;;-6.14;100.00
77725;BME280;66892;53.236;6.550;2024-01-11T04:10:10;103553.50;;;-5.91;100.00
77725;BME280;66892;53.236;6.550;2024-01-11T04:12:37;103537.88;;;-5.84;100.00
77725;BME280;66892;53.236;6.550;2024-01-11T04:15:04;103546.00;;;-5.72;100.00
77725;BME280;66892;53.236;6.550;2024-01-11T04:17:30;103548.19;;;-5.60;100.00
77725;BME280;66892;53.236;6.550;2024-01-11T04:19:57;103564.00;;;-5.48;100.00
77725;BME280;66892;53.236;6.550;2024-01-11T04:22:23;103561.94;;;-5.35;100.00
77725;BME280;66892;53.236;6.550;2024-01-11T04:24:56;103547.88;;;-5.30;100.00
77725;BME280;66892;53.236;6.550;2024-01-11T04:27:22;103572.22;;;-5.11;100.00
77725;BME280;66892;53.236;6.550;2024-01-11T04:29:48;103555.97;;;-5.10;100.00
77725;BME280;66892;53.236;6.550;2024-01-11T04:32:15;103572.38;;;-5.01;100.00
77725;BME280;66892;53.236;6.550;2024-01-11T04:34:41;103578.03;;;-4.88;100.00
77725;BME280;66892;53.236;6.550;2024-01-11T04:37:10;103577.00;;;-4.81;100.00
77725;BME280;66892;53.236;6.550;2024-01-11T04:39:41;103580.38;;;-4.73;100.00
77725;BME280;66892;53.236;6.550;2024-01-11T04:42:11;103590.56;;;-4.66;100.00
77725;BME280;66892;53.236;6.550;2024-01-11T04:44:37;103578.84;;;-4.71;100.00
77725;BME280;66892;53.236;6.550;2024-01-11T04:47:05;103599.22;;;-4.57;100.00
77725;BME280;66892;53.236;6.550;2024-01-11T04:49:32;103609.56;;;-4.57;100.00
77725;BME280;66892;53.236;6.550;2024-01-11T04:51:58;103604.53;;;-4.56;100.00
77725;BME280;66892;53.236;6.550;2024-01-11T04:54:27;103611.41;;;-4.48;100.00
77725;BME280;66892;53.236;6.550;2024-01-11T04:56:53;103603.97;;;-4.45;100.00
77725;BME280;66892;53.236;6.550;2024-01-11T04:59:21;103607.31;;;-4.37;100.00
77725;BME280;66892;53.236;6.550;2024-01-11T05:01:49;103588.94;;;-4.40;100.00
77725;BME280;66892;53.236;6.550;2024-01-11T05:04:15;103575.56;;;-4.36;100.00
77725;BME280;66892;53.236;6.550;2024-01-11T05:06:42;103582.72;;;-4.25;100.00
77725;BME280;66892;53.236;6.550;2024-01-11T05:09:08;103599.56;;;-4.20;100.00
77725;BME280;66892;53.236;6.550;2024-01-11T05:11:35;103586.66;;;-4.20;100.00
77725;BME280;66892;53.236;6.550;2024-01-11T05:14:02;103591.66;;;-4.13;100.00
77725;BME280;66892;53.236;6.550;2024-01-11T05:16:30;103602.59;;;-4.07;100.00
77725;BME280;66892;53.236;6.550;2024-01-11T05:18:57;103605.03;;;-4.00;100.00
77725;BME280;66892;53.236;6.550;2024-01-11T05:21:24;103597.47;;;-3.98;100.00
77725;BME280;66892;53.236;6.550;2024-01-11T05:23:51;103588.31;;;-3.95;100.00
77725;BME280;66892;53.236;6.550;2024-01-11T05:26:19;103593.78;;;-3.83;100.00
77725;BME280;66892;53.236;6.550;2024-01-11T05:28:45;103596.06;;;-3.78;100.00
77725;BME280;66892;53.236;6.550;2024-01-11T05:31:13;103607.59;;;-3.74;100.00
77725;BME280;66892;53.236;6.550;2024-01-11T05:33:42;103576.91;;;-3.80;100.00
77725;BME280;66892;53.236;6.550;2024-01-11T05:36:11;103589.34;;;-3.67;100.00
77725;BME280;66892;53.236;6.550;2024-01-11T05:38:41;103576.72;;;-3.64;100.00
77725;BME280;66892;53.236;6.550;2024-01-11T05:41:09;103581.84;;;-3.55;100.00
77725;BME280;66892;53.236;6.550;2024-01-11T05:43:37;103576.56;;;-3.57;100.00
77725;BME280;66892;53.236;6.550;2024-01-11T05:46:06;103560.25;;;-3.56;100.00
77725;BME280;66892;53.236;6.550;2024-01-11T05:48:33;103580.59;;;-3.42;100.00
77725;BME280;66892;53.236;6.550;2024-01-11T05:51:01;103579.84;;;-3.41;100.00
77725;BME280;66892;53.236;6.550;2024-01-11T05:53:27;103574.69;;;-3.41;100.00
77725;BME280;66892;53.236;6.550;2024-01-11T05:55:53;103569.31;;;-3.34;100.00
77725;BME280;66892;53.236;6.550;2024-01-11T05:58:20;103564.91;;;-3.35;100.00
77725;BME280;66892;53.236;6.550;2024-01-11T06:00:46;103560.66;;;-3.34;100.00
77725;BME280;66892;53.236;6.550;2024-01-11T06:03:13;103569.59;;;-3.31;100.00
77725;BME280;66892;53.236;6.550;2024-01-11T06:05:39;103574.31;;;-3.27;100.00
77725;BME280;66892;53.236;6.550;2024-01-11T06:08:07;103578.72;;;-3.26;100.00
77725;BME280;66892;53.236;6.550;2024-01-11T06:10:34;103569.41;;;-3.24;100.00
77725;BME280;66892;53.236;6.550;2024-01-11T06:13:00;103575.97;;;-3.18;100.00
77725;BME280;66892;53.236;6.550;2024-01-11T06:15:26;103567.69;;;-3.14;100.00
77725;BME280;66892;53.236;6.550;2024-01-11T06:17:52;103542.91;;;-3.12;100.00
77725;BME280;66892;53.236;6.550;2024-01-11T06:20:19;103547.59;;;-3.08;100.00
77725;BME280;66892;53.236;6.550;2024-01-11T06:22:45;103559.56;;;-3.00;100.00
77725;BME280;66892;53.236;6.550;2024-01-11T06:25:13;103542.22;;;-3.01;100.00
77725;BME280;66892;53.236;6.550;2024-01-11T06:27:41;103552.53;;;-2.93;100.00
77725;BME280;66892;53.236;6.550;2024-01-11T06:30:08;103548.28;;;-2.92;100.00
77725;BME280;66892;53.236;6.550;2024-01-11T06:32:35;103538.06;;;-2.91;100.00
77725;BME280;66892;53.236;6.550;2024-01-11T06:35:01;103541.09;;;-2.86;100.00
77725;BME280;66892;53.236;6.550;2024-01-11T06:37:29;103544.88;;;-2.83;100.00
77725;BME280;66892;53.236;6.550;2024-01-11T06:39:59;103532.41;;;-2.87;100.00
77725;BME280;66892;53.236;6.550;2024-01-11T06:42:33;103527.03;;;-2.80;100.00
77725;BME280;66892;53.236;6.550;2024-01-11T06:45:00;103508.00;;;-2.80;100.00
77725;BME280;66892;53.236;6.550;2024-01-11T06:47:30;103514.78;;;-2.72;100.00
77725;BME280;66892;53.236;6.550;2024-01-11T06:49:56;103525.84;;;-2.64;100.00
77725;BME280;66892;53.236;6.550;2024-01-11T06:52:23;103519.63;;;-2.67;100.00
77725;BME280;66892;53.236;6.550;2024-01-11T06:54:54;103519.75;;;-2.65;100.00
77725;BME280;66892;53.236;6.550;2024-01-11T06:57:21;103530.41;;;-2.62;100.00
77725;BME280;66892;53.236;6.550;2024-01-11T06:59:54;103525.38;;;-2.60;100.00
77725;BME280;66892;53.236;6.550;2024-01-11T07:02:24;103529.00;;;-2.58;100.00
77725;BME280;66892;53.236;6.550;2024-01-11T07:04:54;103543.53;;;-2.50;100.00
77725;BME280;66892;53.236;6.550;2024-01-11T07:07:23;103533.97;;;-2.51;100.00
77725;BME280;66892;53.236;6.550;2024-01-11T07:09:50;103563.75;;;-2.38;100.00
77725;BME280;66892;53.236;6.550;2024-01-11T07:12:19;103556.31;;;-2.43;100.00
77725;BME280;66892;53.236;6.550;2024-01-11T07:14:48;103556.81;;;-2.47;100.00
77725;BME280;66892;53.236;6.550;2024-01-11T07:17:16;103566.03;;;-2.41;100.00
77725;BME280;66892;53.236;6.550;2024-01-11T07:19:45;103553.38;;;-2.38;100.00
77725;BME280;66892;53.236;6.550;2024-01-11T07:22:11;103559.44;;;-2.37;100.00
77725;BME280;66892;53.236;6.550;2024-01-11T07:24:41;103561.72;;;-2.32;100.00
77725;BME280;66892;53.236;6.550;2024-01-11T07:27:07;103556.03;;;-2.28;100.00
77725;BME280;66892;53.236;6.550;2024-01-11T07:29:34;103554.50;;;-2.26;100.00
77725;BME280;66892;53.236;6.550;2024-01-11T07:32:03;103543.59;;;-2.32;100.00
77725;BME280;66892;53.236;6.550;2024-01-11T07:34:32;103554.03;;;-2.22;100.00
77725;BME280;66892;53.236;6.550;2024-01-11T07:37:03;103546.09;;;-2.23;100.00
77725;BME280;66892;53.236;6.550;2024-01-11T07:39:30;103549.88;;;-2.20;100.00
77725;BME280;66892;53.236;6.550;2024-01-11T07:41:57;103549.09;;;-2.19;100.00
77725;BME280;66892;53.236;6.550;2024-01-11T07:44:23;103535.34;;;-2.18;100.00
77725;BME280;66892;53.236;6.550;2024-01-11T07:46:52;103548.88;;;-2.12;100.00
77725;BME280;66892;53.236;6.550;2024-01-11T07:49:25;103553.72;;;-2.06;100.00
77725;BME280;66892;53.236;6.550;2024-01-11T07:51:56;103558.25;;;-2.03;100.00
77725;BME280;66892;53.236;6.550;2024-01-11T07:54:45;103545.03;;;-2.06;100.00
77725;BME280;66892;53.236;6.550;2024-01-11T07:57:17;103541.63;;;-2.05;100.00
77725;BME280;66892;53.236;6.550;2024-01-11T08:00:16;103557.13;;;-1.97;100.00
77725;BME280;66892;53.236;6.550;2024-01-11T08:02:54;103556.66;;;-1.93;100.00
77725;BME280;66892;53.236;6.550;2024-01-11T08:05:31;103541.84;;;-1.94;100.00
77725;BME280;66892;53.236;6.550;2024-01-11T08:08:08;103550.03;;;-1.89;100.00
77725;BME280;66892;53.236;6.550;2024-01-11T08:10:36;103553.31;;;-1.82;100.00
77725;BME280;66892;53.236;6.550;2024-01-11T08:13:05;103566.19;;;-1.73;100.00
77725;BME280;66892;53.236;6.550;2024-01-11T08:15:43;103552.72;;;-1.69;100.00
77725;BME280;66892;53.236;6.550;2024-01-11T08:18:13;103561.56;;;-1.67;100.00
77725;BME280;66892;53.236;6.550;2024-01-11T08:20:49;103570.16;;;-1.58;100.00
77725;BME280;66892;53.236;6.550;2024-01-11T08:23:36;103562.66;;;-1.55;100.00
77725;BME280;66892;53.236;6.550;2024-01-11T08:27:05;103551.84;;;-1.60;100.00
77725;BME280;66892;53.236;6.550;2024-01-11T08:29:24;103554.88;;;-1.55;100.00
77725;BME280;66892;53.236;6.550;2024-01-11T08:32:09;103549.19;;;-1.51;100.00
77725;BME280;66892;53.236;6.550;2024-01-11T08:34:53;103564.91;;;-1.39;100.00
77725;BME280;66892;53.236;6.550;2024-01-11T08:37:54;103546.25;;;-1.35;100.00
77725;BME280;66892;53.236;6.550;2024-01-11T08:40:34;103566.78;;;-1.18;100.00
77725;BME280;66892;53.236;6.550;2024-01-11T08:43:15;103557.72;;;-1.13;100.00
77725;BME280;66892;53.236;6.550;2024-01-11T08:47:57;103555.00;;;-1.04;100.00
77725;BME280;66892;53.236;6.550;2024-01-11T08:49:05;103541.09;;;-1.05;100.00
77725;BME280;66892;53.236;6.550;2024-01-11T08:51:31;103548.91;;;-0.95;100.00
77725;BME280;66892;53.236;6.550;2024-01-11T08:54:21;103538.53;;;-0.95;100.00
77725;BME280;66892;53.236;6.550;2024-01-11T08:57:07;103519.69;;;-0.92;100.00
77725;BME280;66892;53.236;6.550;2024-01-11T08:59:39;103535.53;;;-0.79;100.00
77725;BME280;66892;53.236;6.550;2024-01-11T09:02:26;103548.13;;;-0.74;100.00
77725;BME280;66892;53.236;6.550;2024-01-11T09:05:17;103552.81;;;-0.70;100.00
77725;BME280;66892;53.236;6.550;2024-01-11T09:07:47;103539.72;;;-0.71;100.00
77725;BME280;66892;53.236;6.550;2024-01-11T09:10:40;103541.00;;;-0.66;100.00
77725;BME280;66892;53.236;6.550;2024-01-11T09:20:15;103555.53;;;-0.38;100.00
77725;BME280;66892;53.236;6.550;2024-01-11T09:26:02;103543.44;;;-0.27;100.00
77725;BME280;66892;53.236;6.550;2024-01-11T09:28:49;103541.22;;;-0.23;100.00
77725;BME280;66892;53.236;6.550;2024-01-11T10:10:24;103574.50;;;0.55;100.00
77725;BME280;66892;53.236;6.550;2024-01-11T10:12:51;103573.31;;;0.62;100.00
77725;BME280;66892;53.236;6.550;2024-01-11T10:15:17;103570.97;;;0.65;100.00
77725;BME280;66892;53.236;6.550;2024-01-11T10:17:44;103576.16;;;0.65;100.00
77725;BME280;66892;53.236;6.550;2024-01-11T10:20:11;103569.50;;;0.68;100.00
77725;BME280;66892;53.236;6.550;2024-01-11T10:22:37;103568.72;;;0.69;100.00
77725;BME280;66892;53.236;6.550;2024-01-11T10:25:10;103565.47;;;0.72;100.00
77725;BME280;66892;53.236;6.550;2024-01-11T10:27:39;103569.75;;;0.71;100.00
77725;BME280;66892;53.236;6.550;2024-01-11T10:30:07;103572.59;;;0.74;100.00
77725;BME280;66892;53.236;6.550;2024-01-11T10:32:33;103570.00;;;0.74;100.00
77725;BME280;66892;53.236;6.550;2024-01-11T10:35:00;103555.19;;;0.73;100.00
77725;BME280;66892;53.236;6.550;2024-01-11T10:37:27;103552.81;;;0.76;100.00
77725;BME280;66892;53.236;6.550;2024-01-11T10:39:57;103555.66;;;0.79;100.00
77725;BME280;66892;53.236;6.550;2024-01-11T10:42:24;103546.94;;;0.79;100.00
77725;BME280;66892;53.236;6.550;2024-01-11T10:44:55;103542.75;;;0.81;100.00
77725;BME280;66892;53.236;6.550;2024-01-11T10:47:24;103541.19;;;0.83;100.00
77725;BME280;66892;53.236;6.550;2024-01-11T10:49:56;103551.84;;;0.86;100.00
77725;BME280;66892;53.236;6.550;2024-01-11T10:52:27;103537.91;;;0.85;100.00
77725;BME280;66892;53.236;6.550;2024-01-11T10:54:56;103536.56;;;0.90;100.00
77725;BME280;66892;53.236;6.550;2024-01-11T10:57:23;103549.03;;;0.94;100.00
77725;BME280;66892;53.236;6.550;2024-01-11T10:59:50;103545.00;;;0.98;100.00
77725;BME280;66892;53.236;6.550;2024-01-11T11:02:19;103527.00;;;1.01;100.00
77725;BME280;66892;53.236;6.550;2024-01-11T11:04:46;103533.22;;;1.03;100.00
77725;BME280;66892;53.236;6.550;2024-01-11T11:07:15;103531.91;;;1.08;100.00
77725;BME280;66892;53.236;6.550;2024-01-11T11:09:42;103534.50;;;1.08;100.00
77725;BME280;66892;53.236;6.550;2024-01-11T11:12:11;103529.63;;;1.13;100.00
77725;BME280;66892;53.236;6.550;2024-01-11T11:14:38;103523.63;;;1.14;100.00
77725;BME280;66892;53.236;6.550;2024-01-11T11:17:05;103516.72;;;1.14;100.00
77725;BME280;66892;53.236;6.550;2024-01-11T11:19:33;103519.56;;;1.17;100.00
77725;BME280;66892;53.236;6.550;2024-01-11T11:22:03;103517.09;;;1.19;100.00
77725;BME280;66892;53.236;6.550;2024-01-11T11:24:29;103518.34;;;1.24;100.00
77725;BME280;66892;53.236;6.550;2024-01-11T11:26:55;103507.13;;;1.25;100.00
77725;BME280;66892;53.236;6.550;2024-01-11T11:29:23;103506.31;;;1.26;100.00
77725;BME280;66892;53.236;6.550;2024-01-11T11:31:49;103500.47;;;1.28;100.00
77725;BME280;66892;53.236;6.550;2024-01-11T11:34:41;103501.84;;;1.35;100.00
77725;BME280;66892;53.236;6.550;2024-01-11T11:37:10;103497.41;;;1.34;100.00
77725;BME280;66892;53.236;6.550;2024-01-11T11:39:37;103491.97;;;1.31;100.00
77725;BME280;66892;53.236;6.550;2024-01-11T11:42:03;103494.81;;;1.34;100.00
77725;BME280;66892;53.236;6.550;2024-01-11T11:44:30;103500.00;;;1.34;100.00
77725;BME280;66892;53.236;6.550;2024-01-11T11:47:17;103501.56;;;1.32;100.00
77725;BME280;66892;53.236;6.550;2024-01-11T11:50:07;103507.47;;;1.29;100.00
77725;BME280;66892;53.236;6.550;2024-01-11T11:52:34;103503.72;;;1.26;100.00
77725;BME280;66892;53.236;6.550;2024-01-11T11:55:01;103504.41;;;1.23;100.00
77725;BME280;66892;53.236;6.550;2024-01-11T11:57:28;103496.34;;;1.20;100.00
77725;BME280;66892;53.236;6.550;2024-01-11T11:59:55;103491.91;;;1.19;100.00
77725;BME280;66892;53.236;6.550;2024-01-11T12:02:24;103495.34;;;1.18;100.00
77725;BME280;66892;53.236;6.550;2024-01-11T12:04:50;103489.31;;;1.19;100.00
77725;BME280;66892;53.236;6.550;2024-01-11T12:07:19;103491.91;;;1.19;100.00
77725;BME280;66892;53.236;6.550;2024-01-11T12:09:46;103480.84;;;1.22;100.00
77725;BME280;66892;53.236;6.550;2024-01-11T12:12:13;103481.06;;;1.25;100.00
77725;BME280;66892;53.236;6.550;2024-01-11T12:14:39;103478.81;;;1.29;100.00
77725;BME280;66892;53.236;6.550;2024-01-11T12:17:06;103491.84;;;1.29;100.00
77725;BME280;66892;53.236;6.550;2024-01-11T12:19:33;103477.88;;;1.29;100.00
77725;BME280;66892;53.236;6.550;2024-01-11T12:21:59;103470.19;;;1.30;100.00
77725;BME280;66892;53.236;6.550;2024-01-11T12:24:26;103472.03;;;1.31;100.00
77725;BME280;66892;53.236;6.550;2024-01-11T12:26:53;103466.91;;;1.33;100.00
77725;BME280;66892;53.236;6.550;2024-01-11T12:29:23;103461.25;;;1.38;100.00
77725;BME280;66892;53.236;6.550;2024-01-11T12:31:49;103466.59;;;1.40;100.00
77725;BME280;66892;53.236;6.550;2024-01-11T12:34:16;103449.94;;;1.38;100.00
77725;BME280;66892;53.236;6.550;2024-01-11T12:36:42;103444.13;;;1.42;100.00
77725;BME280;66892;53.236;6.550;2024-01-11T12:39:08;103443.13;;;1.40;100.00
77725;BME280;66892;53.236;6.550;2024-01-11T12:41:37;103433.72;;;1.42;100.00
77725;BME280;66892;53.236;6.550;2024-01-11T12:44:03;103431.31;;;1.45;100.00
77725;BME280;66892;53.236;6.550;2024-01-11T12:46:29;103431.31;;;1.45;100.00
77725;BME280;66892;53.236;6.550;2024-01-11T12:48:55;103424.31;;;1.44;100.00
77725;BME280;66892;53.236;6.550;2024-01-11T12:51:22;103422.50;;;1.43;100.00
77725;BME280;66892;53.236;6.550;2024-01-11T12:53:48;103420.13;;;1.46;100.00
77725;BME280;66892;53.236;6.550;2024-01-11T12:56:15;103414.22;;;1.48;100.00
77725;BME280;66892;53.236;6.550;2024-01-11T12:58:43;103410.81;;;1.49;100.00
77725;BME280;66892;53.236;6.550;2024-01-11T13:01:09;103415.13;;;1.49;100.00
77725;BME280;66892;53.236;6.550;2024-01-11T13:03:38;103410.03;;;1.50;100.00
77725;BME280;66892;53.236;6.550;2024-01-11T13:06:04;103402.31;;;1.52;100.00
77725;BME280;66892;53.236;6.550;2024-01-11T13:08:34;103412.06;;;1.54;100.00
77725;BME280;66892;53.236;6.550;2024-01-11T13:11:03;103424.22;;;1.54;100.00
77725;BME280;66892;53.236;6.550;2024-01-11T13:13:35;103421.72;;;1.55;100.00
77725;BME280;66892;53.236;6.550;2024-01-11T13:16:04;103410.50;;;1.56;100.00
77725;BME280;66892;53.236;6.550;2024-01-11T13:18:36;103407.88;;;1.56;100.00
77725;BME280;66892;53.236;6.550;2024-01-11T13:21:03;103412.19;;;1.56;100.00
77725;BME280;66892;53.236;6.550;2024-01-11T13:23:29;103397.56;;;1.58;100.00
77725;BME280;66892;53.236;6.550;2024-01-11T13:25:55;103393.25;;;1.58;100.00
77725;BME280;66892;53.236;6.550;2024-01-11T13:28:21;103400.50;;;1.63;100.00
77725;BME280;66892;53.236;6.550;2024-01-11T13:30:47;103393.91;;;1.68;100.00
77725;BME280;66892;53.236;6.550;2024-01-11T13:33:15;103401.75;;;1.68;100.00
77725;BME280;66892;53.236;6.550;2024-01-11T13:35:43;103393.13;;;1.69;100.00
77725;BME280;66892;53.236;6.550;2024-01-11T13:38:09;103384.53;;;1.70;100.00
77725;BME280;66892;53.236;6.550;2024-01-11T13:40:35;103384.63;;;1.71;100.00
77725;BME280;66892;53.236;6.550;2024-01-11T13:43:01;103387.22;;;1.71;100.00